Flight Track Log - Related Links

Times and Time Zones

All times are in EDT time to prevent confusion due to time zone crossing. See the UAL440 flight status page for this flight to view local times or setup timezone preferences in your user account.

Time Position Orientation Groundspeed Altitude Reporting Facility
EDT Latitude Longitude Course Direction KTS MPH feet Rate Location/Type
Thu 10:39:24 AM 33.6500 -117.8833 90° East 133 153 1,700  Level Southern California TRACON
Thu 10:41:00 AM 33.4667 -117.7057 90° East  Level FlightAware Approximate
Thu 10:41:16 AM 33.5750 -117.8983 189° South 157 181 3,900  Level Los Angeles Center
Thu 10:42:00 AM 33.5157 -117.6017 54° Northeast  Level FlightAware Approximate
Thu 10:42:18 AM 33.5108 -117.8575 152° Southeast 251 289 6,000  Level Los Angeles Center
Thu 10:43:00 AM 33.5580 -117.4897 66° East  Level FlightAware Approximate
Thu 10:43:20 AM 33.5078 -117.7711 92° East 283 326 7,700  Level Los Angeles Center
Thu 10:44:00 AM 33.5833 -117.3727 90° East  Level FlightAware Approximate
Thu 10:44:22 AM 33.5325 -117.6789 72° East 292 336 10,800  Level Los Angeles Center
Thu 10:45:24 AM 33.5650 -117.5522 73° East 322 371 12,700 2,032 Climbing Los Angeles Center
Thu 10:46:26 AM 33.5850 -117.4319 79° East 373 429 15,000 2,129 Climbing Los Angeles Center
Thu 10:47:28 AM 33.5897 -117.3044 87° East 385 443 17,100 1,790 Climbing Los Angeles Center
Thu 10:48:30 AM 33.5942 -117.2022 87° East 387 445 18,700 1,839 Climbing Los Angeles Center
Thu 10:49:32 AM 33.5997 -117.0406 88° East 403 464 20,900 1,839 Climbing Los Angeles Center
Thu 10:50:34 AM 33.6047 -116.9036 87° East 411 473 22,500 1,548 Climbing Los Angeles Center
Thu 10:51:36 AM 33.6089 -116.7531 88° East 425 489 24,100 1,452 Climbing Los Angeles Center
Thu 10:52:38 AM 33.6144 -116.6064 87° East 437 503 25,500 1,694 Climbing Los Angeles Center
Thu 10:53:40 AM 33.6322 -116.4297 83° East 447 514 27,600 1,597 Climbing Los Angeles Center
Thu 10:54:42 AM 33.6986 -116.3028 58° Northeast 448 516 28,800 1,597 Climbing Los Angeles Center
Thu 10:55:44 AM 33.7675 -116.1719 58° Northeast 459 528 30,900 1,500 Climbing Los Angeles Center
Thu 10:56:46 AM 33.8350 -116.0447 57° Northeast 453 521 31,900 1,161 Climbing Los Angeles Center
Thu 10:57:48 AM 33.9036 -115.9178 57° Northeast 453 521 33,300 1,161 Climbing Los Angeles Center
Thu 10:58:50 AM 33.9725 -115.7858 58° Northeast 461 531 34,300 1,016 Climbing Los Angeles Center
Thu 10:59:52 AM 34.0414 -115.6564 57° Northeast 460 529 35,400 1,258 Climbing Los Angeles Center
Thu 11:00:54 AM 34.1225 -115.4994 58° Northeast 460 529 36,900 726 Climbing Los Angeles Center
Thu 11:01:56 AM 34.1897 -115.3731 57° Northeast 453 521 36,900 48 Level Los Angeles Center
Thu 11:02:58 AM 34.2567 -115.2442 58° Northeast 451 519 37,000 48 Climbing Los Angeles Center
Thu 11:04:00 AM 34.3239 -115.1164 57° Northeast 452 520 37,000 -48 Level Los Angeles Center
Thu 11:05:02 AM 34.3897 -114.9886 58° Northeast 449 517 36,900  Descending Los Angeles Center
Thu 11:06:05 AM 34.4558 -114.8600 58° Northeast 449 517 37,000 48 Climbing Los Angeles Center
Thu 11:07:07 AM 34.5350 -114.7072 58° Northeast 449 517 37,000  Level Los Angeles Center
Thu 11:08:09 AM 34.6008 -114.5786 58° Northeast 448 516 37,000  Level Los Angeles Center
Thu 11:09:11 AM 34.6600 -114.4611 59° Northeast 451 519 37,000  Level Los Angeles Center
Thu 11:10:13 AM 34.7383 -114.3050 59° Northeast 452 520 37,000  Level Los Angeles Center
Thu 11:11:15 AM 34.8042 -114.1767 58° Northeast 448 516 37,000  Level Los Angeles Center
Thu 11:12:17 AM 34.8700 -114.0472 58° Northeast 450 518 37,000  Level Los Angeles Center
Thu 11:13:19 AM 34.9383 -113.9106 59° Northeast 448 516 37,000  Level Los Angeles Center
Thu 11:14:21 AM 35.0017 -113.7836 59° Northeast 444 511 37,000  Level Los Angeles Center
Thu 11:15:23 AM 35.0661 -113.6553 58° Northeast 446 513 37,000  Level Los Angeles Center
Thu 11:16:25 AM 35.1300 -113.5275 59° Northeast 445 512 37,000  Level Los Angeles Center
Thu 11:17:27 AM 35.2061 -113.3722 59° Northeast 446 513 37,000  Level Los Angeles Center
Thu 11:18:29 AM 35.2681 -113.2469 59° Northeast 446 513 37,000  Level Los Angeles Center
Thu 11:19:32 AM 35.3328 -113.1167 59° Northeast 447 514 37,000  Level Los Angeles Center
Thu 11:20:34 AM 35.3958 -112.9847 60° Northeast 449 517 37,000  Level Los Angeles Center
Thu 11:21:36 AM 35.4728 -112.8306 58° Northeast 459 528 37,000  Level Los Angeles Center
Thu 11:22:38 AM 35.5356 -112.6992 60° Northeast 451 519 37,000  Level Los Angeles Center
Thu 11:23:40 AM 35.5950 -112.5756 59° Northeast 448 516 37,000  Level Los Angeles Center
Thu 11:24:42 AM 35.6575 -112.4442 60° Northeast 448 516 37,000  Level Los Angeles Center
Thu 11:25:44 AM 35.7333 -112.2883 59° Northeast 446 513 37,000  Level Los Angeles Center
Thu 11:26:46 AM 35.7961 -112.1569 59° Northeast 447 514 37,000  Level Los Angeles Center
Thu 11:27:48 AM 35.8589 -112.0261 59° Northeast 447 514 37,000  Level Los Angeles Center
Thu 11:28:51 AM 35.9250 -111.8842 60° Northeast 448 516 37,000  Level Los Angeles Center
Thu 11:29:53 AM 35.9881 -111.7494 60° Northeast 452 520 37,000  Level Los Angeles Center
Thu 11:31:31 AM 36.0867 -111.5386 60° Northeast 451 519 37,000  Level Denver Center
Thu 11:32:33 AM 36.1617 -111.3786 60° Northeast 450 518 37,000  Level Denver Center
Thu 11:33:35 AM 36.2242 -111.2464 60° Northeast 448 516 37,000  Level Denver Center
Thu 11:34:36 AM 36.2739 -111.1400 60° Northeast 448 516 37,000  Level Denver Center
Thu 11:35:39 AM 36.3464 -110.9797 61° Northeast 446 513 37,000  Level Denver Center
Thu 11:36:41 AM 36.4058 -110.8494 60° Northeast 443 510 37,000  Level Denver Center
Thu 11:37:43 AM 36.4792 -110.6903 60° Northeast 444 511 37,000  Level Denver Center
Thu 11:38:45 AM 36.5403 -110.5586 60° Northeast 442 509 37,000  Level Denver Center
Thu 11:39:59 AM 36.5997 -110.4267 61° Northeast 440 506 37,000  Level Denver Center
Thu 11:41:02 AM 36.6711 -110.2683 61° Northeast 440 506 37,000  Level Denver Center
Thu 11:42:04 AM 36.7353 -110.1253 61° Northeast 439 505 37,000  Level Denver Center
Thu 11:43:06 AM 36.7917 -109.9975 61° Northeast 439 505 37,000  Level Denver Center
Thu 11:44:08 AM 36.8594 -109.8481 60° Northeast 443 510 37,000  Level Denver Center
Thu 11:45:10 AM 36.9164 -109.7194 61° Northeast 442 509 37,000  Level Denver Center
Thu 11:46:12 AM 36.9825 -109.5700 61° Northeast 439 505 37,000  Level Denver Center
Thu 11:47:14 AM 37.0392 -109.4400 61° Northeast 442 509 37,000  Level Denver Center
Thu 11:48:16 AM 37.1050 -109.2914 61° Northeast 439 505 37,000  Level Denver Center
Thu 11:49:18 AM 37.1608 -109.1636 61° Northeast 436 502 37,000  Level Denver Center
Thu 11:50:20 AM 37.2264 -109.0117 62° Northeast 440 506 37,000  Level Denver Center
Thu 11:51:22 AM 37.2831 -108.8831 61° Northeast 439 505 37,000  Level Denver Center
Thu 11:52:24 AM 37.3381 -108.7561 61° Northeast 433 498 37,000  Level Denver Center
Thu 11:53:26 AM 37.4022 -108.6064 62° Northeast 434 499 37,000  Level Denver Center
Thu 11:54:29 AM 37.4569 -108.4767 62° Northeast 435 501 37,000  Level Denver Center
Thu 11:55:31 AM 37.5208 -108.3264 62° Northeast 435 501 37,000  Level Denver Center
Thu 11:56:32 AM 37.5664 -108.2167 62° Northeast 439 505 37,000  Level Denver Center
Thu 11:57:34 AM 37.6214 -108.0872 62° Northeast 437 503 37,000  Level Denver Center
Thu 11:58:37 AM 37.6933 -107.9139 62° Northeast 437 503 37,000  Level Denver Center
Thu 11:59:39 AM 37.7572 -107.7642 62° Northeast 434 499 37,000  Level Denver Center
Thu 12:00:41 PM 37.8111 -107.6336 62° Northeast 436 502 37,000  Level Denver Center
Thu 12:01:43 PM 37.8744 -107.4800 62° Northeast 439 505 37,000  Level Denver Center
Thu 12:02:45 PM 37.9289 -107.3489 62° Northeast 441 507 37,000  Level Denver Center
Thu 12:03:46 PM 37.9736 -107.2400 62° Northeast 438 504 37,000 -194 Level Denver Center
Thu 12:04:49 PM 38.0347 -107.0903 63° Northeast 440 506 36,600 -438 Descending Denver Center
Thu 12:06:03 PM 38.1044 -106.9175 63° Northeast 451 519 36,000 -438 Descending Denver Center
Thu 12:07:06 PM 38.1722 -106.7514 63° Northeast 453 521 35,600 -720 Descending Denver Center
Thu 12:08:08 PM 38.2419 -106.5981 60° Northeast 449 517 34,500 -968 Descending Denver Center
Thu 12:09:10 PM 38.3200 -106.4889 48° Northeast 457 526 33,600 -1,016 Descending Denver Center
Thu 12:10:12 PM 38.4292 -106.3536 44° Northeast 457 526 32,400 -1,065 Descending Denver Center
Thu 12:11:14 PM 38.5219 -106.2375 44° Northeast 466 536 31,400 -968 Descending Denver Center
Thu 12:12:16 PM 38.6153 -106.1214 44° Northeast 466 536 30,400 -1,016 Descending Denver Center
Thu 12:13:18 PM 38.7164 -105.9942 44° Northeast 460 529 29,300 -1,210 Descending Denver Center
Thu 12:14:20 PM 38.8011 -105.8878 44° Northeast 451 519 27,900 -1,548 Descending Denver Center
Thu 12:15:22 PM 38.8850 -105.7819 44° Northeast 444 511 26,100 -2,032 Descending Denver Center
Thu 12:16:24 PM 38.9769 -105.6636 45° Northeast 427 491 23,700 -2,177 Descending Denver Center
Thu 12:17:26 PM 39.0536 -105.5669 44° Northeast 410 472 21,600 -1,935 Descending Denver Center
Thu 12:18:28 PM 39.1417 -105.4536 45° Northeast 401 461 19,700 -1,742 Descending Denver Center
Thu 12:19:30 PM 39.2142 -105.3600 45° Northeast 372 428 18,000 -1,161 Descending Denver Center
Thu 12:20:32 PM 39.2678 -105.2508 58° Northeast 341 392 17,300 -1,056 Descending Denver Center
Thu 12:21:35 PM 39.2900 -105.1358 76° East 332 382 15,800 -1,191 Descending Denver Center
Thu 12:22:48 PM 39.3111 -105.0161 77° East 322 371 14,600 -750 Descending Denver Center
Thu 12:23:51 PM 39.3333 -104.8978 76° East 277 319 14,100 -528 Descending Denver Center
Thu 12:24:53 PM 39.3531 -104.8225 71° East 265 305 13,500 -1,016 Descending Denver Center
Thu 12:25:55 PM 39.4336 -104.7772 23° Northeast 256 295 12,000 -1,355 Descending Denver Center
Thu 12:26:57 PM 39.4983 -104.7394 24° Northeast 255 293 10,700 -1,113 Descending Denver Center
Thu 12:27:59 PM 39.5628 -104.6978 26° Northeast 245 282 9,700 -968 Descending Denver Center
Thu 12:29:01 PM 39.6272 -104.6900 North 233 268 8,700 -968 Descending Denver Center
Thu 12:30:03 PM 39.6933 -104.6894 360° North 224 258 7,700 -968 Descending Denver Center

Login

Don't have an account? Register now (free) for customized features, flight alerts, and more!